sensor_id;sensor_type;location;lat;lon;timestamp;pressure;altitude;pressure_sealevel;temperature;humidity
54936;BME280;40838;50.676;7.838;2023-04-09T00:01:03;99175.84;;;0.75;100.00
54936;BME280;40838;50.676;7.838;2023-04-09T00:03:30;99180.25;;;0.68;100.00
54936;BME280;40838;50.676;7.838;2023-04-09T00:05:57;99174.91;;;0.54;100.00
54936;BME280;40838;50.676;7.838;2023-04-09T00:08:25;99178.94;;;0.50;100.00
54936;BME280;40838;50.676;7.838;2023-04-09T00:10:53;99175.63;;;0.42;100.00
54936;BME280;40838;50.676;7.838;2023-04-09T00:13:20;99175.25;;;0.45;100.00
54936;BME280;40838;50.676;7.838;2023-04-09T00:15:47;99168.91;;;0.32;100.00
54936;BME280;40838;50.676;7.838;2023-04-09T00:18:14;99177.38;;;0.34;100.00
54936;BME280;40838;50.676;7.838;2023-04-09T00:20:41;99168.31;;;0.37;100.00
54936;BME280;40838;50.676;7.838;2023-04-09T00:23:08;99165.00;;;0.22;100.00
54936;BME280;40838;50.676;7.838;2023-04-09T00:25:36;99166.22;;;0.26;100.00
54936;BME280;40838;50.676;7.838;2023-04-09T00:28:03;99164.06;;;0.29;100.00
54936;BME280;40838;50.676;7.838;2023-04-09T00:30:30;99162.03;;;0.31;100.00
54936;BME280;40838;50.676;7.838;2023-04-09T00:32:57;99160.66;;;0.35;100.00
54936;BME280;40838;50.676;7.838;2023-04-09T00:35:24;99157.47;;;0.40;100.00
54936;BME280;40838;50.676;7.838;2023-04-09T00:37:51;99156.88;;;0.38;100.00
54936;BME280;40838;50.676;7.838;2023-04-09T00:40:18;99150.22;;;0.42;100.00
54936;BME280;40838;50.676;7.838;2023-04-09T00:42:46;99156.22;;;0.36;100.00
54936;BME280;40838;50.676;7.838;2023-04-09T00:45:13;99149.41;;;0.42;100.00
54936;BME280;40838;50.676;7.838;2023-04-09T00:47:40;99150.38;;;0.34;100.00
54936;BME280;40838;50.676;7.838;2023-04-09T00:50:10;99152.28;;;0.47;100.00
54936;BME280;40838;50.676;7.838;2023-04-09T00:52:37;99150.19;;;0.35;100.00
54936;BME280;40838;50.676;7.838;2023-04-09T00:55:05;99150.28;;;0.21;100.00
54936;BME280;40838;50.676;7.838;2023-04-09T00:57:31;99157.63;;;0.10;100.00
54936;BME280;40838;50.676;7.838;2023-04-09T01:00:00;99158.91;;;0.15;100.00
54936;BME280;40838;50.676;7.838;2023-04-09T01:02:27;99153.69;;;0.21;100.00
54936;BME280;40838;50.676;7.838;2023-04-09T01:04:55;99154.69;;;-0.01;100.00
54936;BME280;40838;50.676;7.838;2023-04-09T01:07:33;99152.09;;;-0.01;100.00
54936;BME280;40838;50.676;7.838;2023-04-09T01:10:09;99149.22;;;0.15;100.00
54936;BME280;40838;50.676;7.838;2023-04-09T01:12:51;99154.28;;;-0.05;100.00
54936;BME280;40838;50.676;7.838;2023-04-09T01:15:25;99153.94;;;-0.17;100.00
54936;BME280;40838;50.676;7.838;2023-04-09T01:18:00;99156.25;;;-0.28;100.00
54936;BME280;40838;50.676;7.838;2023-04-09T01:20:34;99157.06;;;-0.06;100.00
54936;BME280;40838;50.676;7.838;2023-04-09T01:23:18;99154.09;;;-0.18;100.00
54936;BME280;40838;50.676;7.838;2023-04-09T01:26:02;99144.38;;;-0.24;100.00
54936;BME280;40838;50.676;7.838;2023-04-09T01:28:42;99150.19;;;-0.29;100.00
54936;BME280;40838;50.676;7.838;2023-04-09T01:31:12;99157.25;;;-0.29;100.00
54936;BME280;40838;50.676;7.838;2023-04-09T01:33:40;99153.13;;;-0.17;100.00
54936;BME280;40838;50.676;7.838;2023-04-09T01:36:07;99155.00;;;-0.33;100.00
54936;BME280;40838;50.676;7.838;2023-04-09T01:38:36;99159.66;;;-0.28;100.00
54936;BME280;40838;50.676;7.838;2023-04-09T01:41:05;99159.97;;;-0.38;100.00
54936;BME280;40838;50.676;7.838;2023-04-09T01:43:33;99154.38;;;-0.35;100.00
54936;BME280;40838;50.676;7.838;2023-04-09T01:46:03;99155.09;;;-0.41;100.00
54936;BME280;40838;50.676;7.838;2023-04-09T01:48:30;99157.19;;;-0.51;100.00
54936;BME280;40838;50.676;7.838;2023-04-09T01:50:58;99164.19;;;-0.37;100.00
54936;BME280;40838;50.676;7.838;2023-04-09T01:53:25;99156.22;;;-0.50;100.00
54936;BME280;40838;50.676;7.838;2023-04-09T01:55:53;99162.63;;;-0.52;100.00
54936;BME280;40838;50.676;7.838;2023-04-09T01:58:21;99161.03;;;-0.68;100.00
54936;BME280;40838;50.676;7.838;2023-04-09T02:00:48;99162.19;;;-0.71;100.00
54936;BME280;40838;50.676;7.838;2023-04-09T02:03:20;99163.41;;;-0.73;100.00
54936;BME280;40838;50.676;7.838;2023-04-09T02:05:52;99162.06;;;-0.84;100.00
54936;BME280;40838;50.676;7.838;2023-04-09T02:08:21;99177.09;;;-0.86;100.00
54936;BME280;40838;50.676;7.838;2023-04-09T02:10:53;99171.88;;;-0.86;100.00
54936;BME280;40838;50.676;7.838;2023-04-09T02:13:21;99173.75;;;-0.80;100.00
54936;BME280;40838;50.676;7.838;2023-04-09T02:15:49;99167.63;;;-0.72;100.00
54936;BME280;40838;50.676;7.838;2023-04-09T02:18:22;99161.31;;;-0.78;100.00
54936;BME280;40838;50.676;7.838;2023-04-09T02:20:51;99160.78;;;-0.73;100.00
54936;BME280;40838;50.676;7.838;2023-04-09T02:23:17;99158.25;;;-0.82;100.00
54936;BME280;40838;50.676;7.838;2023-04-09T02:25:45;99158.41;;;-0.68;100.00
54936;BME280;40838;50.676;7.838;2023-04-09T02:28:12;99154.88;;;-0.61;100.00
54936;BME280;40838;50.676;7.838;2023-04-09T02:30:38;99158.03;;;-0.65;100.00
54936;BME280;40838;50.676;7.838;2023-04-09T02:33:06;99164.31;;;-0.81;100.00
54936;BME280;40838;50.676;7.838;2023-04-09T02:35:37;99155.09;;;-0.92;100.00
54936;BME280;40838;50.676;7.838;2023-04-09T02:38:04;99151.66;;;-0.78;100.00
54936;BME280;40838;50.676;7.838;2023-04-09T02:40:32;99152.28;;;-0.75;100.00
54936;BME280;40838;50.676;7.838;2023-04-09T02:42:59;99150.69;;;-0.77;100.00
54936;BME280;40838;50.676;7.838;2023-04-09T02:45:26;99146.44;;;-0.78;100.00
54936;BME280;40838;50.676;7.838;2023-04-09T02:47:52;99140.66;;;-0.73;100.00
54936;BME280;40838;50.676;7.838;2023-04-09T02:50:20;99154.38;;;-1.01;100.00
54936;BME280;40838;50.676;7.838;2023-04-09T02:52:51;99138.66;;;-0.86;100.00
54936;BME280;40838;50.676;7.838;2023-04-09T02:55:19;99139.25;;;-0.90;100.00
54936;BME280;40838;50.676;7.838;2023-04-09T02:57:46;99147.44;;;-0.79;100.00
54936;BME280;40838;50.676;7.838;2023-04-09T03:00:13;99144.41;;;-0.97;100.00
54936;BME280;40838;50.676;7.838;2023-04-09T03:02:41;99141.13;;;-0.84;100.00
54936;BME280;40838;50.676;7.838;2023-04-09T03:05:08;99144.13;;;-1.02;100.00
54936;BME280;40838;50.676;7.838;2023-04-09T03:07:35;99143.69;;;-1.06;100.00
54936;BME280;40838;50.676;7.838;2023-04-09T03:10:05;99146.00;;;-1.11;100.00
54936;BME280;40838;50.676;7.838;2023-04-09T03:12:32;99136.38;;;-1.10;100.00
54936;BME280;40838;50.676;7.838;2023-04-09T03:14:59;99140.94;;;-1.12;100.00
54936;BME280;40838;50.676;7.838;2023-04-09T03:17:26;99135.28;;;-1.16;100.00
54936;BME280;40838;50.676;7.838;2023-04-09T03:19:56;99131.41;;;-1.05;100.00
54936;BME280;40838;50.676;7.838;2023-04-09T03:22:34;99136.91;;;-1.15;100.00
54936;BME280;40838;50.676;7.838;2023-04-09T03:25:05;99129.88;;;-1.14;100.00
54936;BME280;40838;50.676;7.838;2023-04-09T03:27:35;99132.22;;;-1.19;100.00
54936;BME280;40838;50.676;7.838;2023-04-09T03:30:03;99129.59;;;-1.19;100.00
54936;BME280;40838;50.676;7.838;2023-04-09T03:32:40;99123.47;;;-1.41;100.00
54936;BME280;40838;50.676;7.838;2023-04-09T03:35:09;99129.25;;;-1.46;100.00
54936;BME280;40838;50.676;7.838;2023-04-09T03:37:37;99129.84;;;-1.59;100.00
54936;BME280;40838;50.676;7.838;2023-04-09T03:40:09;99125.78;;;-1.61;100.00
54936;BME280;40838;50.676;7.838;2023-04-09T03:42:36;99126.25;;;-1.73;100.00
54936;BME280;40838;50.676;7.838;2023-04-09T03:45:05;99117.88;;;-1.91;100.00
54936;BME280;40838;50.676;7.838;2023-04-09T03:47:38;99124.63;;;-1.97;100.00
54936;BME280;40838;50.676;7.838;2023-04-09T03:50:06;99122.63;;;-2.09;100.00
54936;BME280;40838;50.676;7.838;2023-04-09T03:52:45;99126.75;;;-2.15;100.00
54936;BME280;40838;50.676;7.838;2023-04-09T03:55:13;99126.78;;;-2.23;100.00
54936;BME280;40838;50.676;7.838;2023-04-09T03:57:40;99126.69;;;-2.30;100.00
54936;BME280;40838;50.676;7.838;2023-04-09T04:00:11;99130.84;;;-2.21;100.00
54936;BME280;40838;50.676;7.838;2023-04-09T04:03:11;99132.00;;;-2.23;100.00
54936;BME280;40838;50.676;7.838;2023-04-09T04:05:59;99129.59;;;-2.25;100.00
54936;BME280;40838;50.676;7.838;2023-04-09T04:08:29;99126.00;;;-2.24;100.00
54936;BME280;40838;50.676;7.838;2023-04-09T04:11:03;99120.25;;;-2.19;100.00
54936;BME280;40838;50.676;7.838;2023-04-09T04:13:31;99127.53;;;-2.15;100.00
54936;BME280;40838;50.676;7.838;2023-04-09T04:16:01;99128.03;;;-2.11;100.00
54936;BME280;40838;50.676;7.838;2023-04-09T04:18:28;99125.06;;;-2.08;100.00
54936;BME280;40838;50.676;7.838;2023-04-09T04:20:55;99132.50;;;-2.20;100.00
54936;BME280;40838;50.676;7.838;2023-04-09T04:23:21;99127.53;;;-2.15;100.00
54936;BME280;40838;50.676;7.838;2023-04-09T04:25:57;99124.94;;;-2.15;100.00
54936;BME280;40838;50.676;7.838;2023-04-09T04:28:31;99130.97;;;-2.14;100.00
54936;BME280;40838;50.676;7.838;2023-04-09T04:30:58;99139.34;;;-2.19;100.00
54936;BME280;40838;50.676;7.838;2023-04-09T04:33:27;99131.81;;;-2.14;100.00
54936;BME280;40838;50.676;7.838;2023-04-09T04:36:03;99135.69;;;-2.09;100.00
54936;BME280;40838;50.676;7.838;2023-04-09T04:38:35;99133.97;;;-2.02;100.00
54936;BME280;40838;50.676;7.838;2023-04-09T04:41:06;99141.06;;;-1.73;100.00
54936;BME280;40838;50.676;7.838;2023-04-09T04:43:39;99140.91;;;-1.72;100.00
54936;BME280;40838;50.676;7.838;2023-04-09T04:46:10;99140.19;;;-1.65;100.00
54936;BME280;40838;50.676;7.838;2023-04-09T04:48:39;99144.41;;;-1.79;100.00
54936;BME280;40838;50.676;7.838;2023-04-09T04:51:06;99136.84;;;-1.74;100.00
54936;BME280;40838;50.676;7.838;2023-04-09T04:53:40;99125.53;;;-1.66;100.00
54936;BME280;40838;50.676;7.838;2023-04-09T04:56:12;99131.38;;;-1.64;100.00
54936;BME280;40838;50.676;7.838;2023-04-09T04:58:46;99140.19;;;-1.65;100.00
54936;BME280;40838;50.676;7.838;2023-04-09T05:01:15;99136.22;;;-1.61;100.00
54936;BME280;40838;50.676;7.838;2023-04-09T05:03:42;99136.59;;;-1.64;100.00
54936;BME280;40838;50.676;7.838;2023-04-09T05:06:38;99133.81;;;-1.63;100.00
54936;BME280;40838;50.676;7.838;2023-04-09T05:09:09;99137.44;;;-1.64;100.00
54936;BME280;40838;50.676;7.838;2023-04-09T05:11:45;99136.16;;;-1.53;100.00
54936;BME280;40838;50.676;7.838;2023-04-09T05:14:18;99131.22;;;-1.48;100.00
54936;BME280;40838;50.676;7.838;2023-04-09T05:16:47;99132.94;;;-1.40;100.00
54936;BME280;40838;50.676;7.838;2023-04-09T05:19:15;99140.44;;;-1.37;100.00
54936;BME280;40838;50.676;7.838;2023-04-09T05:21:42;99143.13;;;-1.31;100.00
54936;BME280;40838;50.676;7.838;2023-04-09T05:24:10;99142.22;;;-1.38;100.00
54936;BME280;40838;50.676;7.838;2023-04-09T05:26:36;99141.22;;;-1.37;100.00
54936;BME280;40838;50.676;7.838;2023-04-09T05:29:03;99141.41;;;-1.38;100.00
54936;BME280;40838;50.676;7.838;2023-04-09T05:31:33;99143.47;;;-1.34;100.00
54936;BME280;40838;50.676;7.838;2023-04-09T05:34:05;99140.78;;;-1.11;100.00
54936;BME280;40838;50.676;7.838;2023-04-09T05:36:41;99139.78;;;-1.10;100.00
54936;BME280;40838;50.676;7.838;2023-04-09T05:39:09;99134.81;;;-0.90;100.00
54936;BME280;40838;50.676;7.838;2023-04-09T05:41:36;99140.56;;;-0.80;100.00
54936;BME280;40838;50.676;7.838;2023-04-09T05:44:22;99136.81;;;-0.56;100.00
54936;BME280;40838;50.676;7.838;2023-04-09T05:46:53;99129.53;;;-0.02;100.00
54936;BME280;40838;50.676;7.838;2023-04-09T05:49:27;99138.34;;;0.46;100.00
54936;BME280;40838;50.676;7.838;2023-04-09T05:51:55;99136.50;;;0.75;100.00
54936;BME280;40838;50.676;7.838;2023-04-09T05:54:25;99134.28;;;2.01;100.00
54936;BME280;40838;50.676;7.838;2023-04-09T05:56:52;99135.94;;;1.27;100.00
54936;BME280;40838;50.676;7.838;2023-04-09T05:59:20;99134.16;;;0.87;100.00
54936;BME280;40838;50.676;7.838;2023-04-09T06:01:47;99139.63;;;0.85;100.00
54936;BME280;40838;50.676;7.838;2023-04-09T06:04:15;99129.59;;;2.90;100.00
54936;BME280;40838;50.676;7.838;2023-04-09T06:06:42;99131.53;;;3.14;100.00
54936;BME280;40838;50.676;7.838;2023-04-09T06:09:09;99122.03;;;3.51;100.00
54936;BME280;40838;50.676;7.838;2023-04-09T06:11:36;99118.44;;;3.71;100.00
54936;BME280;40838;50.676;7.838;2023-04-09T06:14:03;99134.91;;;2.56;100.00
54936;BME280;40838;50.676;7.838;2023-04-09T06:16:31;99129.84;;;1.75;100.00
54936;BME280;40838;50.676;7.838;2023-04-09T06:18:59;99133.63;;;1.66;100.00
54936;BME280;40838;50.676;7.838;2023-04-09T06:21:27;99137.75;;;1.14;100.00
54936;BME280;40838;50.676;7.838;2023-04-09T06:23:54;99139.41;;;0.87;100.00
54936;BME280;40838;50.676;7.838;2023-04-09T06:26:21;99141.72;;;0.68;100.00
54936;BME280;40838;50.676;7.838;2023-04-09T06:28:47;99146.56;;;0.65;100.00
54936;BME280;40838;50.676;7.838;2023-04-09T06:31:14;99143.13;;;0.64;100.00
54936;BME280;40838;50.676;7.838;2023-04-09T06:33:41;99150.50;;;2.05;100.00
54936;BME280;40838;50.676;7.838;2023-04-09T06:36:08;99132.91;;;6.50;100.00
54936;BME280;40838;50.676;7.838;2023-04-09T06:38:36;99133.00;;;6.31;100.00
54936;BME280;40838;50.676;7.838;2023-04-09T06:41:03;99134.88;;;7.18;100.00
54936;BME280;40838;50.676;7.838;2023-04-09T06:43:32;99134.25;;;7.68;100.00
54936;BME280;40838;50.676;7.838;2023-04-09T06:46:00;99140.16;;;7.30;100.00
54936;BME280;40838;50.676;7.838;2023-04-09T06:48:27;99130.56;;;9.09;91.88
54936;BME280;40838;50.676;7.838;2023-04-09T06:50:54;99132.09;;;8.83;89.01
54936;BME280;40838;50.676;7.838;2023-04-09T06:53:22;99140.41;;;7.28;99.51
54936;BME280;40838;50.676;7.838;2023-04-09T06:55:50;99135.84;;;8.32;95.82
54936;BME280;40838;50.676;7.838;2023-04-09T06:58:17;99141.22;;;8.54;90.69
54936;BME280;40838;50.676;7.838;2023-04-09T07:00:45;99131.22;;;8.44;91.49
54936;BME280;40838;50.676;7.838;2023-04-09T07:03:13;99127.94;;;8.54;88.74
54936;BME280;40838;50.676;7.838;2023-04-09T07:05:40;99130.03;;;8.01;93.61
54936;BME280;40838;50.676;7.838;2023-04-09T07:08:07;99138.28;;;6.66;100.00
54936;BME280;40838;50.676;7.838;2023-04-09T07:10:35;99126.28;;;7.68;96.30
54936;BME280;40838;50.676;7.838;2023-04-09T07:13:03;99133.03;;;7.59;95.21
54936;BME280;40838;50.676;7.838;2023-04-09T07:15:31;99139.47;;;7.23;99.87
54936;BME280;40838;50.676;7.838;2023-04-09T07:17:58;99137.38;;;7.36;100.00
54936;BME280;40838;50.676;7.838;2023-04-09T07:20:25;99134.56;;;7.03;100.00
54936;BME280;40838;50.676;7.838;2023-04-09T07:22:51;99135.56;;;7.37;100.00
54936;BME280;40838;50.676;7.838;2023-04-09T07:25:18;99136.09;;;6.99;100.00
54936;BME280;40838;50.676;7.838;2023-04-09T07:27:47;99139.69;;;7.21;100.00
54936;BME280;40838;50.676;7.838;2023-04-09T07:30:15;99129.97;;;6.98;100.00
54936;BME280;40838;50.676;7.838;2023-04-09T07:32:43;99147.28;;;6.30;100.00
54936;BME280;40838;50.676;7.838;2023-04-09T07:35:10;99153.72;;;6.81;100.00
54936;BME280;40838;50.676;7.838;2023-04-09T07:37:37;99149.38;;;7.27;99.81
54936;BME280;40838;50.676;7.838;2023-04-09T07:40:05;99151.09;;;6.81;100.00
54936;BME280;40838;50.676;7.838;2023-04-09T07:42:33;99150.84;;;6.83;100.00
54936;BME280;40838;50.676;7.838;2023-04-09T07:45:00;99149.44;;;6.80;100.00
54936;BME280;40838;50.676;7.838;2023-04-09T07:47:29;99142.44;;;6.86;100.00
54936;BME280;40838;50.676;7.838;2023-04-09T07:49:56;99146.00;;;6.68;100.00
54936;BME280;40838;50.676;7.838;2023-04-09T07:52:23;99142.31;;;7.73;98.26
54936;BME280;40838;50.676;7.838;2023-04-09T07:54:50;99151.78;;;6.53;100.00
54936;BME280;40838;50.676;7.838;2023-04-09T07:57:16;99157.28;;;6.63;100.00
54936;BME280;40838;50.676;7.838;2023-04-09T07:59:43;99166.38;;;5.60;100.00
54936;BME280;40838;50.676;7.838;2023-04-09T08:02:11;99163.00;;;5.04;100.00
54936;BME280;40838;50.676;7.838;2023-04-09T08:04:39;99159.84;;;6.46;100.00
54936;BME280;40838;50.676;7.838;2023-04-09T08:07:06;99160.59;;;7.06;100.00
54936;BME280;40838;50.676;7.838;2023-04-09T08:09:32;99167.19;;;6.68;100.00
54936;BME280;40838;50.676;7.838;2023-04-09T08:12:01;99158.31;;;5.06;100.00
54936;BME280;40838;50.676;7.838;2023-04-09T08:14:28;99155.75;;;5.97;100.00
54936;BME280;40838;50.676;7.838;2023-04-09T08:16:54;99159.44;;;5.29;100.00
54936;BME280;40838;50.676;7.838;2023-04-09T08:19:21;99160.75;;;6.76;100.00
54936;BME280;40838;50.676;7.838;2023-04-09T08:21:51;99155.53;;;6.22;100.00
54936;BME280;40838;50.676;7.838;2023-04-09T08:24:18;99156.19;;;7.64;94.66
54936;BME280;40838;50.676;7.838;2023-04-09T08:26:45;99163.94;;;6.89;95.04
54936;BME280;40838;50.676;7.838;2023-04-09T08:29:13;99160.19;;;6.62;100.00
54936;BME280;40838;50.676;7.838;2023-04-09T08:31:40;99151.59;;;4.67;100.00
54936;BME280;40838;50.676;7.838;2023-04-09T08:34:07;99159.88;;;6.05;100.00
54936;BME280;40838;50.676;7.838;2023-04-09T08:36:34;99153.97;;;6.56;100.00
54936;BME280;40838;50.676;7.838;2023-04-09T08:39:04;99165.00;;;6.41;100.00
54936;BME280;40838;50.676;7.838;2023-04-09T08:41:31;99164.94;;;7.24;100.00
54936;BME280;40838;50.676;7.838;2023-04-09T08:43:57;99169.97;;;6.38;100.00
54936;BME280;40838;50.676;7.838;2023-04-09T08:46:25;99166.81;;;7.11;93.88
54936;BME280;40838;50.676;7.838;2023-04-09T08:48:53;99174.44;;;5.17;100.00
54936;BME280;40838;50.676;7.838;2023-04-09T08:51:21;99165.28;;;5.68;100.00
54936;BME280;40838;50.676;7.838;2023-04-09T08:53:51;99158.09;;;6.17;100.00
54936;BME280;40838;50.676;7.838;2023-04-09T08:56:22;99164.19;;;6.88;92.91
54936;BME280;40838;50.676;7.838;2023-04-09T08:58:49;99163.28;;;6.70;96.59
54936;BME280;40838;50.676;7.838;2023-04-09T09:01:20;99164.09;;;6.71;97.21
54936;BME280;40838;50.676;7.838;2023-04-09T09:03:55;99161.41;;;7.58;90.68
54936;BME280;40838;50.676;7.838;2023-04-09T09:06:23;99162.22;;;6.83;91.00
54936;BME280;40838;50.676;7.838;2023-04-09T09:09:04;99157.53;;;6.62;95.73
54936;BME280;40838;50.676;7.838;2023-04-09T09:11:33;99156.75;;;7.37;88.32
54936;BME280;40838;50.676;7.838;2023-04-09T09:14:01;99148.47;;;8.97;80.29
54936;BME280;40838;50.676;7.838;2023-04-09T09:16:28;99155.63;;;8.07;76.69
54936;BME280;40838;50.676;7.838;2023-04-09T09:18:57;99158.84;;;7.64;85.45
54936;BME280;40838;50.676;7.838;2023-04-09T09:21:26;99157.44;;;7.21;94.12
54936;BME280;40838;50.676;7.838;2023-04-09T09:23:53;99157.50;;;7.78;87.89
54936;BME280;40838;50.676;7.838;2023-04-09T09:26:23;99159.41;;;8.28;82.10
54936;BME280;40838;50.676;7.838;2023-04-09T09:28:52;99156.97;;;7.93;81.58
54936;BME280;40838;50.676;7.838;2023-04-09T09:31:21;99165.69;;;7.76;81.90
54936;BME280;40838;50.676;7.838;2023-04-09T09:33:48;99150.84;;;8.77;72.76
54936;BME280;40838;50.676;7.838;2023-04-09T09:36:29;99156.81;;;8.84;76.39
54936;BME280;40838;50.676;7.838;2023-04-09T09:38:58;99151.56;;;7.30;79.57
54936;BME280;40838;50.676;7.838;2023-04-09T09:41:28;99150.66;;;7.13;80.06
54936;BME280;40838;50.676;7.838;2023-04-09T09:43:56;99147.81;;;8.17;74.72
54936;BME280;40838;50.676;7.838;2023-04-09T09:46:24;99148.47;;;8.24;64.44
54936;BME280;40838;50.676;7.838;2023-04-09T09:48:52;99142.16;;;8.47;63.26
54936;BME280;40838;50.676;7.838;2023-04-09T09:51:25;99152.16;;;7.21;76.89
54936;BME280;40838;50.676;7.838;2023-04-09T09:53:54;99151.53;;;8.16;62.61
54936;BME280;40838;50.676;7.838;2023-04-09T09:56:24;99153.22;;;7.08;73.00
54936;BME280;40838;50.676;7.838;2023-04-09T09:59:06;99154.31;;;7.24;70.88
54936;BME280;40838;50.676;7.838;2023-04-09T10:01:33;99149.31;;;9.03;60.68
54936;BME280;40838;50.676;7.838;2023-04-09T10:04:01;99139.81;;;8.68;67.94
54936;BME280;40838;50.676;7.838;2023-04-09T10:06:31;99149.72;;;7.43;73.47
54936;BME280;40838;50.676;7.838;2023-04-09T10:09:01;99147.81;;;6.09;82.17
54936;BME280;40838;50.676;7.838;2023-04-09T10:11:30;99144.34;;;7.26;72.92
54936;BME280;40838;50.676;7.838;2023-04-09T10:13:58;99130.59;;;8.37;67.20
54936;BME280;40838;50.676;7.838;2023-04-09T10:16:27;99128.41;;;8.67;59.23
54936;BME280;40838;50.676;7.838;2023-04-09T10:18:54;99125.53;;;7.84;66.21
54936;BME280;40838;50.676;7.838;2023-04-09T10:21:31;99133.00;;;6.31;65.84
54936;BME280;40838;50.676;7.838;2023-04-09T10:24:02;99138.19;;;6.26;74.36
54936;BME280;40838;50.676;7.838;2023-04-09T10:26:32;99128.44;;;7.54;67.33
54936;BME280;40838;50.676;7.838;2023-04-09T10:29:07;99139.66;;;6.69;64.21
54936;BME280;40838;50.676;7.838;2023-04-09T10:31:50;99146.78;;;5.49;75.56
54936;BME280;40838;50.676;7.838;2023-04-09T10:34:20;99131.81;;;5.62;72.87
54936;BME280;40838;50.676;7.838;2023-04-09T10:36:50;99122.69;;;5.57;78.85
54936;BME280;40838;50.676;7.838;2023-04-09T10:39:18;99118.16;;;7.29;67.34
54936;BME280;40838;50.676;7.838;2023-04-09T10:41:47;99119.28;;;6.11;78.31
54936;BME280;40838;50.676;7.838;2023-04-09T10:44:21;99128.34;;;5.61;83.17
54936;BME280;40838;50.676;7.838;2023-04-09T10:46:52;99116.56;;;5.45;79.82
54936;BME280;40838;50.676;7.838;2023-04-09T10:49:20;99111.50;;;5.74;72.70
54936;BME280;40838;50.676;7.838;2023-04-09T10:51:50;99112.09;;;5.76;77.77
54936;BME280;40838;50.676;7.838;2023-04-09T10:54:41;99115.75;;;6.05;78.50
54936;BME280;40838;50.676;7.838;2023-04-09T10:57:14;99108.75;;;7.10;71.74
54936;BME280;40838;50.676;7.838;2023-04-09T10:59:43;99096.84;;;8.71;60.59
54936;BME280;40838;50.676;7.838;2023-04-09T11:02:44;99107.47;;;7.53;67.04
54936;BME280;40838;50.676;7.838;2023-04-09T11:05:20;99107.00;;;5.74;79.65
54936;BME280;40838;50.676;7.838;2023-04-09T11:07:52;99110.56;;;6.10;78.97
54936;BME280;40838;50.676;7.838;2023-04-09T11:10:20;99102.53;;;6.52;79.01
54936;BME280;40838;50.676;7.838;2023-04-09T11:12:47;99109.69;;;7.04;75.27
54936;BME280;40838;50.676;7.838;2023-04-09T11:15:15;99122.38;;;5.66;80.81
54936;BME280;40838;50.676;7.838;2023-04-09T11:17:44;99121.25;;;6.03;77.95
54936;BME280;40838;50.676;7.838;2023-04-09T11:20:12;99090.19;;;5.99;81.99
54936;BME280;40838;50.676;7.838;2023-04-09T11:22:39;99124.19;;;5.23;91.19
54936;BME280;40838;50.676;7.838;2023-04-09T11:25:06;99110.09;;;5.11;91.94
54936;BME280;40838;50.676;7.838;2023-04-09T11:27:36;99123.03;;;5.01;100.00
54936;BME280;40838;50.676;7.838;2023-04-09T11:30:04;99120.88;;;5.09;97.86
54936;BME280;40838;50.676;7.838;2023-04-09T11:32:31;99119.59;;;5.30;95.42
54936;BME280;40838;50.676;7.838;2023-04-09T11:34:59;99125.66;;;5.49;95.98
54936;BME280;40838;50.676;7.838;2023-04-09T11:37:26;99115.31;;;4.99;99.37
54936;BME280;40838;50.676;7.838;2023-04-09T11:39:53;99121.69;;;4.73;99.01
54936;BME280;40838;50.676;7.838;2023-04-09T11:42:21;99125.00;;;5.24;96.08
54936;BME280;40838;50.676;7.838;2023-04-09T11:44:51;99125.69;;;5.61;89.83
54936;BME280;40838;50.676;7.838;2023-04-09T11:47:18;99118.72;;;5.78;88.39
54936;BME280;40838;50.676;7.838;2023-04-09T11:49:46;99117.91;;;5.66;85.79
54936;BME280;40838;50.676;7.838;2023-04-09T11:52:14;99108.94;;;6.09;84.84
54936;BME280;40838;50.676;7.838;2023-04-09T11:54:42;99115.53;;;6.42;78.71
54936;BME280;40838;50.676;7.838;2023-04-09T11:57:13;99113.97;;;6.93;78.59
54936;BME280;40838;50.676;7.838;2023-04-09T11:59:40;99107.75;;;6.99;78.46
54936;BME280;40838;50.676;7.838;2023-04-09T12:02:07;99100.88;;;7.27;74.36
54936;BME280;40838;50.676;7.838;2023-04-09T12:04:34;99109.47;;;7.05;76.12
54936;BME280;40838;50.676;7.838;2023-04-09T12:07:01;99108.16;;;7.48;72.85
54936;BME280;40838;50.676;7.838;2023-04-09T12:09:29;99097.75;;;7.58;77.07
54936;BME280;40838;50.676;7.838;2023-04-09T12:11:58;99091.03;;;7.10;76.30
54936;BME280;40838;50.676;7.838;2023-04-09T12:14:26;99089.97;;;6.36;81.77
54936;BME280;40838;50.676;7.838;2023-04-09T12:16:53;99092.81;;;5.99;86.57
54936;BME280;40838;50.676;7.838;2023-04-09T12:19:24;99095.41;;;6.41;89.29
54936;BME280;40838;50.676;7.838;2023-04-09T12:21:53;99092.97;;;6.39;80.01
54936;BME280;40838;50.676;7.838;2023-04-09T12:24:23;99094.00;;;6.50;80.95
54936;BME280;40838;50.676;7.838;2023-04-09T12:26:52;99096.31;;;6.46;75.09
54936;BME280;40838;50.676;7.838;2023-04-09T12:29:20;99089.75;;;6.37;75.69
54936;BME280;40838;50.676;7.838;2023-04-09T12:31:46;99094.00;;;6.03;77.96
54936;BME280;40838;50.676;7.838;2023-04-09T12:34:13;99092.16;;;6.51;76.21
54936;BME280;40838;50.676;7.838;2023-04-09T12:36:40;99100.44;;;5.65;71.78
54936;BME280;40838;50.676;7.838;2023-04-09T12:39:07;99088.47;;;6.52;72.12
54936;BME280;40838;50.676;7.838;2023-04-09T12:41:34;99094.34;;;6.42;68.77
54936;BME280;40838;50.676;7.838;2023-04-09T12:44:03;99096.84;;;5.60;76.52
54936;BME280;40838;50.676;7.838;2023-04-09T12:46:31;99093.06;;;6.09;79.94
54936;BME280;40838;50.676;7.838;2023-04-09T12:48:58;99083.19;;;6.16;76.96
54936;BME280;40838;50.676;7.838;2023-04-09T12:51:25;99084.00;;;6.05;78.70
54936;BME280;40838;50.676;7.838;2023-04-09T12:53:53;99089.63;;;6.09;79.69
54936;BME280;40838;50.676;7.838;2023-04-09T12:56:19;99084.28;;;5.43;78.54
54936;BME280;40838;50.676;7.838;2023-04-09T12:58:46;99080.75;;;5.61;80.50
54936;BME280;40838;50.676;7.838;2023-04-09T13:01:14;99083.47;;;5.85;80.97
54936;BME280;40838;50.676;7.838;2023-04-09T13:03:42;99081.16;;;5.76;82.78
54936;BME280;40838;50.676;7.838;2023-04-09T13:06:09;99082.03;;;6.24;78.37
54936;BME280;40838;50.676;7.838;2023-04-09T13:08:35;99075.81;;;6.07;79.77
54936;BME280;40838;50.676;7.838;2023-04-09T13:11:03;99084.53;;;5.53;78.27